Royalty, Texas
Current Conditions -  °F | °C
As of 10:53 AM on Thursday 23 Oct 2014 (Local Time) from KFST Reporting Station
Clear Clear  
Wind Chill: 71°   Ceiling: Unl
Heat Index: 71°   Visibility: 10mi
Dew Point: 60°   Wind: 6mph
Humidity: 68%   Direction: NA
Pressure: 30.18"   Gusts: NA
Location:  31.37°N, 102.87°W
Report Text: KFST 231553Z AUTO VRB05KT 10SM CLR 22/16 A3018 RMK AO2 SLP184 T02170156
Loading
Personal Weather Stations






























Interactive Weather Map
Tropical Storm Tracking
New forecast layout! Learn more

10-Day Weather Forecast

Advertisements
Track Severe Weather on mobile